Time;durP1;ratioP1;P1;durP2;ratioP2;P2;SDS_P1;SDS_P2;PMS_P1;PMS_P2;Temp;Humidity;BMP_temperature;BMP_pressure;BME280_temperature;BME280_humidity;BME280_pressure;Samples;Min_cycle;Max_cycle;Signal;HPM_P1;HPM_P2
2021/01/10 00:02:25;;;;;;;29.23;21.60;;;;;;;;;;5049859;28;20431;-58
2021/01/10 00:04:51;;;;;;;16.38;8.30;;;;;;;;;;5051126;28;20475;-58
2021/01/10 00:07:16;;;;;;;12.27;9.30;;;;;;;;;;5050232;28;20494;-58
2021/01/10 00:09:42;;;;;;;9.13;8.10;;;;;;;;;;5047942;28;20116;-58
2021/01/10 00:12:07;;;;;;;13.93;6.05;;;;;;;;;;5049485;28;20033;-58
2021/01/10 00:14:32;;;;;;;6.55;2.58;;;;;;;;;;5049308;28;20072;-59
2021/01/10 00:16:57;;;;;;;7.60;3.58;;;;;;;;;;5047743;28;20134;-58
2021/01/10 00:19:23;;;;;;;12.32;3.00;;;;;;;;;;5049396;28;20627;-59
2021/01/10 00:21:48;;;;;;;8.02;3.17;;;;;;;;;;5049536;28;20026;-59
2021/01/10 00:24:14;;;;;;;13.20;5.28;;;;;;;;;;5049341;28;20032;-59
2021/01/10 00:26:39;;;;;;;5.25;2.90;;;;;;;;;;5048781;28;20033;-58
2021/01/10 00:29:05;;;;;;;4.38;2.85;;;;;;;;;;5049473;28;20029;-59
2021/01/10 00:31:30;;;;;;;6.63;5.10;;;;;;;;;;5049604;28;20090;-59
2021/01/10 00:33:56;;;;;;;12.43;6.07;;;;;;;;;;5049588;28;20029;-59
2021/01/10 00:36:22;;;;;;;8.68;4.22;;;;;;;;;;5032296;28;20028;-59
2021/01/10 00:38:47;;;;;;;5.95;4.60;;;;;;;;;;5081091;28;20459;-59
2021/01/10 00:41:12;;;;;;;9.82;5.60;;;;;;;;;;5049740;28;20492;-59
2021/01/10 00:43:37;;;;;;;10.27;6.32;;;;;;;;;;5049161;28;20734;-58
2021/01/10 00:46:03;;;;;;;13.52;7.45;;;;;;;;;;5049498;28;20048;-58
2021/01/10 00:48:28;;;;;;;16.63;6.80;;;;;;;;;;5047751;28;20028;-59
2021/01/10 00:50:53;;;;;;;12.20;7.05;;;;;;;;;;5052800;28;20032;-58
2021/01/10 00:53:19;;;;;;;13.38;7.35;;;;;;;;;;5083234;28;20029;-59
2021/01/10 00:55:44;;;;;;;16.02;11.70;;;;;;;;;;5055918;28;20055;-59
2021/01/10 00:58:10;;;;;;;25.10;11.25;;;;;;;;;;5058539;28;20028;-58
2021/01/10 01:00:35;;;;;;;27.40;11.27;;;;;;;;;;5050079;28;20024;-58
2021/01/10 01:03:00;;;;;;;20.45;13.93;;;;;;;;;;5049252;28;20486;-58
2021/01/10 01:05:26;;;;;;;19.85;10.85;;;;;;;;;;5050415;28;20037;-59
2021/01/10 01:07:51;;;;;;;14.18;8.15;;;;;;;;;;5048686;28;20029;-59
2021/01/10 01:10:16;;;;;;;12.90;8.27;;;;;;;;;;5052998;28;20044;-58
2021/01/10 01:12:42;;;;;;;14.15;8.88;;;;;;;;;;5051664;28;20017;-59
2021/01/10 01:15:07;;;;;;;22.67;12.60;;;;;;;;;;5051744;28;20045;-59
2021/01/10 01:17:33;;;;;;;21.58;12.35;;;;;;;;;;5038764;28;20029;-58
2021/01/10 01:19:58;;;;;;;13.88;10.52;;;;;;;;;;5064178;28;20036;-58
2021/01/10 01:22:26;;;;;;;14.93;12.05;;;;;;;;;;5065045;28;20027;-59
2021/01/10 01:24:51;;;;;;;21.90;13.90;;;;;;;;;;5053468;28;20377;-59
2021/01/10 01:27:16;;;;;;;18.17;10.95;;;;;;;;;;5047192;28;20427;-58
2021/01/10 01:29:42;;;;;;;17.83;10.30;;;;;;;;;;5049023;28;20044;-58
2021/01/10 01:32:07;;;;;;;19.83;9.85;;;;;;;;;;5055505;28;20024;-59
2021/01/10 01:34:32;;;;;;;17.80;10.02;;;;;;;;;;5063100;28;20044;-58
2021/01/10 01:36:58;;;;;;;15.57;9.18;;;;;;;;;;5058781;28;20024;-58
2021/01/10 01:39:23;;;;;;;9.10;7.22;;;;;;;;;;5059908;28;20479;-58
2021/01/10 01:41:49;;;;;;;14.38;6.90;;;;;;;;;;5061765;28;20028;-58
2021/01/10 01:44:14;;;;;;;19.08;4.88;;;;;;;;;;5057797;28;20033;-58
2021/01/10 01:46:39;;;;;;;7.25;3.67;;;;;;;;;;5060028;28;20107;-58
2021/01/10 01:49:06;;;;;;;6.45;2.45;;;;;;;;;;5056257;28;20470;-59
2021/01/10 01:51:33;;;;;;;5.10;2.95;;;;;;;;;;5058196;28;20394;-58
2021/01/10 01:53:59;;;;;;;14.07;4.68;;;;;;;;;;5059009;28;20044;-59
2021/01/10 01:56:24;;;;;;;8.95;4.75;;;;;;;;;;5062325;28;20394;-58
2021/01/10 01:58:59;;;;;;;18.83;3.28;;;;;;;;;;5055998;28;20037;-58
2021/01/10 02:01:26;;;;;;;4.28;2.25;;;;;;;;;;5053361;28;20029;-59
2021/01/10 02:03:53;;;;;;;8.73;3.05;;;;;;;;;;5048145;28;20043;-59
2021/01/10 02:06:22;;;;;;;9.45;3.42;;;;;;;;;;5055940;28;20175;-59
2021/01/10 02:08:51;;;;;;;4.80;2.45;;;;;;;;;;5056394;28;20029;-60
2021/01/10 02:11:17;;;;;;;8.35;3.65;;;;;;;;;;5057498;28;20021;-59
2021/01/10 02:13:43;;;;;;;8.45;4.72;;;;;;;;;;5052375;28;20040;-59
2021/01/10 02:16:08;;;;;;;10.57;9.18;;;;;;;;;;5048508;28;20471;-59
2021/01/10 02:18:35;;;;;;;9.88;8.73;;;;;;;;;;5056372;28;20041;-59
2021/01/10 02:21:02;;;;;;;14.70;10.25;;;;;;;;;;5058056;28;20021;-59
2021/01/10 02:23:29;;;;;;;8.35;6.45;;;;;;;;;;5069884;28;20039;-58
2021/01/10 02:25:56;;;;;;;10.02;5.75;;;;;;;;;;5070924;28;20059;-59
2021/01/10 02:28:23;;;;;;;5.78;4.82;;;;;;;;;;5070527;28;20097;-59
2021/01/10 02:30:49;;;;;;;13.13;5.63;;;;;;;;;;5070701;28;20020;-59
2021/01/10 02:33:20;;;;;;;12.73;4.72;;;;;;;;;;5070232;28;20100;-59
2021/01/10 02:35:48;;;;;;;9.80;5.53;;;;;;;;;;5064346;28;20041;-59
2021/01/10 02:38:32;;;;;;;16.73;4.72;;;;;;;;;;5051739;28;20076;-59
2021/01/10 02:41:06;;;;;;;8.63;3.85;;;;;;;;;;5058592;28;20055;-59
2021/01/10 02:43:33;;;;;;;8.65;3.10;;;;;;;;;;5063028;28;20147;-59
2021/01/10 02:46:00;;;;;;;5.72;4.00;;;;;;;;;;5070168;28;20154;-59
2021/01/10 02:48:25;;;;;;;10.00;4.63;;;;;;;;;;5070169;28;20033;-59
2021/01/10 02:50:50;;;;;;;4.25;2.65;;;;;;;;;;5055710;28;20028;-59
2021/01/10 02:53:16;;;;;;;8.80;2.58;;;;;;;;;;5051701;28;20027;-59
2021/01/10 02:55:41;;;;;;;7.22;2.92;;;;;;;;;;5053109;28;20435;-59
2021/01/10 02:58:22;;;;;;;23.95;4.10;;;;;;;;;;5054303;28;20029;-59
2021/01/10 03:00:47;;;;;;;5.65;3.13;;;;;;;;;;5054106;28;20398;-58
2021/01/10 03:03:13;;;;;;;9.50;3.97;;;;;;;;;;5054408;28;20021;-59
2021/01/10 03:05:38;;;;;;;5.50;3.72;;;;;;;;;;5057462;28;20115;-58
2021/01/10 03:08:04;;;;;;;5.60;2.75;;;;;;;;;;5054188;28;20024;-59
2021/01/10 03:10:29;;;;;;;4.68;1.77;;;;;;;;;;5053983;28;20039;-58
2021/01/10 03:12:55;;;;;;;2.15;1.50;;;;;;;;;;5060838;28;20071;-58
2021/01/10 03:15:20;;;;;;;6.65;1.65;;;;;;;;;;5060734;28;20044;-58
2021/01/10 03:17:47;;;;;;;4.53;2.88;;;;;;;;;;5058479;28;20024;-58
2021/01/10 03:20:13;;;;;;;4.65;2.45;;;;;;;;;;5072912;28;20502;-58
2021/01/10 03:22:39;;;;;;;2.53;1.17;;;;;;;;;;5072710;28;20028;-58
2021/01/10 03:25:05;;;;;;;3.65;1.27;;;;;;;;;;5072678;28;20406;-58
2021/01/10 03:27:31;;;;;;;4.82;1.25;;;;;;;;;;5072558;28;20065;-58
2021/01/10 03:29:56;;;;;;;6.38;1.75;;;;;;;;;;5072938;28;20363;-59
2021/01/10 03:32:21;;;;;;;0.75;0.55;;;;;;;;;;5071281;28;20029;-59
2021/01/10 03:34:46;;;;;;;1.15;0.80;;;;;;;;;;5072128;28;20044;-59
2021/01/10 03:37:12;;;;;;;2.10;0.95;;;;;;;;;;5055051;28;20094;-59
2021/01/10 03:39:38;;;;;;;0.95;0.65;;;;;;;;;;5058725;28;20468;-58
2021/01/10 03:42:03;;;;;;;9.00;1.17;;;;;;;;;;5053697;28;20025;-59
2021/01/10 03:44:28;;;;;;;2.42;1.27;;;;;;;;;;5059893;28;20463;-59
2021/01/10 03:46:54;;;;;;;1.25;0.93;;;;;;;;;;5067710;28;20060;-59
2021/01/10 03:49:19;;;;;;;0.70;0.70;;;;;;;;;;5072143;28;20111;-59
2021/01/10 03:51:44;;;;;;;2.05;1.42;;;;;;;;;;5072067;28;20025;-58
2021/01/10 03:54:10;;;;;;;4.88;1.38;;;;;;;;;;5071503;28;20048;-59
2021/01/10 03:56:35;;;;;;;8.82;1.45;;;;;;;;;;5072617;28;20021;-60
2021/01/10 03:59:00;;;;;;;1.35;1.05;;;;;;;;;;5072385;28;20033;-59
2021/01/10 04:01:25;;;;;;;0.47;0.38;;;;;;;;;;5071814;28;20403;-59
2021/01/10 04:03:51;;;;;;;0.85;0.35;;;;;;;;;;5072272;28;20068;-59
2021/01/10 04:06:16;;;;;;;2.83;1.10;;;;;;;;;;5061959;28;20104;-58
2021/01/10 04:08:41;;;;;;;0.47;0.22;;;;;;;;;;5052758;28;20037;-56
2021/01/10 04:11:07;;;;;;;6.60;0.98;;;;;;;;;;5052812;28;20156;-56
2021/01/10 04:13:32;;;;;;;1.55;0.40;;;;;;;;;;5052905;28;20040;-58
2021/01/10 04:15:57;;;;;;;4.00;0.80;;;;;;;;;;5052881;28;20029;-58
2021/01/10 04:18:23;;;;;;;2.00;0.45;;;;;;;;;;5052918;28;20029;-58
2021/01/10 04:20:48;;;;;;;4.10;1.23;;;;;;;;;;5052792;28;20025;-58
2021/01/10 04:23:13;;;;;;;3.63;0.93;;;;;;;;;;5053002;28;20029;-58
2021/01/10 04:25:39;;;;;;;10.20;1.27;;;;;;;;;;5052594;28;20136;-58
2021/01/10 04:28:04;;;;;;;1.08;0.90;;;;;;;;;;5052919;28;20017;-58
2021/01/10 04:30:30;;;;;;;1.23;0.55;;;;;;;;;;5052679;28;20071;-58
2021/01/10 04:32:55;;;;;;;7.20;1.80;;;;;;;;;;5052466;28;20470;-58
2021/01/10 04:35:20;;;;;;;0.90;0.35;;;;;;;;;;5055876;28;20474;-58
2021/01/10 04:37:46;;;;;;;7.78;1.27;;;;;;;;;;5057281;28;20147;-57
2021/01/10 04:40:11;;;;;;;2.95;0.68;;;;;;;;;;5070621;28;20477;-56
2021/01/10 04:42:37;;;;;;;1.15;0.60;;;;;;;;;;5071128;28;20070;-57
2021/01/10 04:45:02;;;;;;;3.00;1.15;;;;;;;;;;5071119;28;20048;-59
2021/01/10 04:47:28;;;;;;;0.65;0.20;;;;;;;;;;5071095;28;20029;-58
2021/01/10 04:49:53;;;;;;;2.20;1.15;;;;;;;;;;5063682;28;20103;-58
2021/01/10 04:52:20;;;;;;;1.95;1.05;;;;;;;;;;5070791;28;20044;-58
2021/01/10 04:54:47;;;;;;;5.43;1.13;;;;;;;;;;5071074;28;20037;-58
2021/01/10 04:57:13;;;;;;;1.65;0.95;;;;;;;;;;5070701;28;20074;-58
2021/01/10 04:59:41;;;;;;;0.65;0.40;;;;;;;;;;5071336;28;20054;-58
2021/01/10 05:02:08;;;;;;;0.30;0.20;;;;;;;;;;5070669;28;20024;-59
2021/01/10 05:04:34;;;;;;;2.53;1.08;;;;;;;;;;5071158;28;20041;-58
2021/01/10 05:07:00;;;;;;;10.35;0.75;;;;;;;;;;5055095;28;20021;-58
2021/01/10 05:09:25;;;;;;;1.58;0.40;;;;;;;;;;5052328;28;20043;-58
2021/01/10 05:11:50;;;;;;;0.93;0.75;;;;;;;;;;5051767;28;20445;-58
2021/01/10 05:14:16;;;;;;;3.08;0.95;;;;;;;;;;5051933;28;20064;-58
2021/01/10 05:16:41;;;;;;;9.77;1.40;;;;;;;;;;5051997;28;20105;-58
2021/01/10 05:19:07;;;;;;;2.80;0.40;;;;;;;;;;5051856;28;20032;-59
2021/01/10 05:21:32;;;;;;;10.48;1.05;;;;;;;;;;5059276;28;20437;-58
2021/01/10 05:23:58;;;;;;;5.47;0.80;;;;;;;;;;5057278;28;20482;-58
2021/01/10 05:26:30;;;;;;;2.50;0.60;;;;;;;;;;5052335;28;20437;-58
2021/01/10 05:28:57;;;;;;;6.80;1.42;;;;;;;;;;5051653;28;20029;-58
2021/01/10 05:31:32;;;;;;;10.15;0.95;;;;;;;;;;5051532;28;20125;-58
2021/01/10 05:33:57;;;;;;;1.85;0.63;;;;;;;;;;5051750;28;20025;-58
2021/01/10 05:36:27;;;;;;;4.50;0.80;;;;;;;;;;5056550;28;20028;-58
2021/01/10 05:38:52;;;;;;;5.70;1.48;;;;;;;;;;5062482;28;20522;-58
2021/01/10 05:41:18;;;;;;;9.02;1.15;;;;;;;;;;5053352;28;20095;-58
2021/01/10 05:44:02;;;;;;;2.78;1.30;;;;;;;;;;5070433;28;20143;-58
2021/01/10 05:46:31;;;;;;;2.63;0.93;;;;;;;;;;5069976;28;20123;-58
2021/01/10 05:48:57;;;;;;;1.70;0.80;;;;;;;;;;5070432;28;20429;-58
2021/01/10 05:51:25;;;;;;;1.05;0.65;;;;;;;;;;5072320;28;20021;-58
2021/01/10 05:53:50;;;;;;;6.70;0.77;;;;;;;;;;5074599;28;20033;-58
2021/01/10 05:56:17;;;;;;;0.63;0.63;;;;;;;;;;5073904;28;20047;-58
2021/01/10 05:58:42;;;;;;;3.35;0.70;;;;;;;;;;5074270;28;20434;-58
2021/01/10 06:01:11;;;;;;;4.80;0.52;;;;;;;;;;5074360;28;20095;-58
2021/01/10 06:03:37;;;;;;;1.13;0.85;;;;;;;;;;5074400;28;20024;-58
2021/01/10 06:06:06;;;;;;;1.90;1.15;;;;;;;;;;5064984;28;20051;-58
2021/01/10 06:08:33;;;;;;;2.65;0.85;;;;;;;;;;5055079;28;20108;-58
2021/01/10 06:11:16;;;;;;;3.20;1.48;;;;;;;;;;5062645;28;20078;-57
2021/01/10 06:13:46;;;;;;;6.60;0.93;;;;;;;;;;5074217;28;20119;-58
2021/01/10 06:16:12;;;;;;;3.33;0.63;;;;;;;;;;5073659;28;20028;-58
2021/01/10 06:18:38;;;;;;;3.95;1.20;;;;;;;;;;5066789;28;20039;-58
2021/01/10 06:21:05;;;;;;;6.07;1.90;;;;;;;;;;5073825;28;20028;-58
2021/01/10 06:23:31;;;;;;;1.95;0.95;;;;;;;;;;5055049;28;20021;-58
2021/01/10 06:25:57;;;;;;;0.85;0.52;;;;;;;;;;5054754;28;20372;-58
2021/01/10 06:28:26;;;;;;;3.05;1.70;;;;;;;;;;5054799;28;20183;-58
2021/01/10 06:31:01;;;;;;;1.48;0.70;;;;;;;;;;5054799;28;20029;-58
2021/01/10 06:33:27;;;;;;;1.65;0.80;;;;;;;;;;5073416;28;20474;-58
2021/01/10 06:35:53;;;;;;;4.68;1.15;;;;;;;;;;5066897;28;20108;-58
2021/01/10 06:38:22;;;;;;;2.30;0.85;;;;;;;;;;5054706;28;20025;-58
2021/01/10 06:40:59;;;;;;;2.63;1.10;;;;;;;;;;5054854;28;20017;-58
2021/01/10 06:43:25;;;;;;;5.57;1.63;;;;;;;;;;5055045;28;20036;-57
2021/01/10 06:45:51;;;;;;;4.00;1.42;;;;;;;;;;5054711;28;20102;-58
2021/01/10 06:48:23;;;;;;;3.08;0.93;;;;;;;;;;5071591;28;20540;-58
2021/01/10 06:50:49;;;;;;;4.10;1.10;;;;;;;;;;5073444;28;20508;-58
2021/01/10 06:53:14;;;;;;;5.03;1.90;;;;;;;;;;5072741;28;20016;-58
2021/01/10 06:55:44;;;;;;;6.35;3.45;;;;;;;;;;5073270;28;20040;-58
2021/01/10 06:58:10;;;;;;;3.60;1.48;;;;;;;;;;5072580;28;20024;-58
2021/01/10 07:00:55;;;;;;;6.00;2.83;;;;;;;;;;5073046;28;20047;-58
2021/01/10 07:03:24;;;;;;;4.22;2.28;;;;;;;;;;5071904;28;20386;-58
2021/01/10 07:05:55;;;;;;;3.05;1.45;;;;;;;;;;5067196;28;20029;-58
2021/01/10 07:08:30;;;;;;;4.30;1.15;;;;;;;;;;5054416;28;20053;-58
2021/01/10 07:10:55;;;;;;;2.72;1.48;;;;;;;;;;5054380;28;20118;-58
2021/01/10 07:13:23;;;;;;;6.53;3.08;;;;;;;;;;5054328;28;20068;-58
2021/01/10 07:16:08;;;;;;;2.83;1.08;;;;;;;;;;5053918;28;20115;-58
2021/01/10 07:18:47;;;;;;;3.92;1.00;;;;;;;;;;5065817;28;20047;-58
2021/01/10 07:21:27;;;;;;;5.30;4.57;;;;;;;;;;5072382;28;20417;-58
2021/01/10 07:23:52;;;;;;;6.72;3.75;;;;;;;;;;5072497;28;20025;-58
2021/01/10 07:26:37;;;;;;;8.38;4.32;;;;;;;;;;5072067;28;20021;-58
2021/01/10 07:29:03;;;;;;;12.25;5.55;;;;;;;;;;5071110;28;20154;-58
2021/01/10 07:31:28;;;;;;;10.70;6.78;;;;;;;;;;5059894;28;20391;-58
2021/01/10 07:34:09;;;;;;;3.97;1.48;;;;;;;;;;5052473;28;20444;-58
2021/01/10 07:36:45;;;;;;;15.05;2.95;;;;;;;;;;5056138;28;20100;-58
2021/01/10 07:39:11;;;;;;;5.10;3.20;;;;;;;;;;5053907;28;20048;-58
2021/01/10 07:41:36;;;;;;;11.55;4.60;;;;;;;;;;5063596;28;20028;-58
2021/01/10 07:44:01;;;;;;;3.78;1.98;;;;;;;;;;5053276;28;20533;-58
2021/01/10 07:46:53;;;;;;;3.83;1.85;;;;;;;;;;5072183;28;20070;-58
2021/01/10 07:49:18;;;;;;;;;;;;;;;;;;5068603;28;20045;-58
2021/01/10 07:51:46;;;;;;;10.85;4.22;;;;;;;;;;5064578;28;20007;-58
2021/01/10 07:54:12;;;;;;;11.32;3.70;;;;;;;;;;5071651;28;20352;-58
2021/01/10 07:56:38;;;;;;;5.30;3.10;;;;;;;;;;5072247;28;20528;-58
2021/01/10 07:59:13;;;;;;;7.40;2.33;;;;;;;;;;5071798;28;20063;-59
2021/01/10 08:01:48;;;;;;;6.70;1.80;;;;;;;;;;5052730;28;20384;-58
2021/01/10 08:04:28;;;;;;;7.68;3.35;;;;;;;;;;5053602;28;20047;-58
2021/01/10 08:06:57;;;;;;;2.50;1.67;;;;;;;;;;5056352;28;20056;-58
2021/01/10 08:09:28;;;;;;;4.53;1.90;;;;;;;;;;5053210;28;20028;-58
2021/01/10 08:11:54;;;;;;;47.75;29.83;;;;;;;;;;5052800;28;20068;-57
2021/01/10 08:14:19;;;;;;;36.58;15.63;;;;;;;;;;5052865;28;20498;-59
2021/01/10 08:16:44;;;;;;;19.25;12.93;;;;;;;;;;5058785;28;20025;-58
2021/01/10 08:19:10;;;;;;;26.33;14.95;;;;;;;;;;5053222;28;20028;-58
2021/01/10 08:21:35;;;;;;;16.25;12.43;;;;;;;;;;5055056;28;20098;-58
2021/01/10 08:24:00;;;;;;;16.70;12.88;;;;;;;;;;5065470;28;20108;-58
2021/01/10 08:26:26;;;;;;;18.50;11.25;;;;;;;;;;5053118;28;20028;-60
2021/01/10 08:28:52;;;;;;;21.25;12.68;;;;;;;;;;5052831;28;20550;-60
2021/01/10 08:31:25;;;;;;;26.60;17.33;;;;;;;;;;5054112;28;20443;-58
2021/01/10 08:34:16;;;;;;;24.58;14.50;;;;;;;;;;5059116;28;20091;-56
2021/01/10 08:36:45;;;;;;;12.63;9.50;;;;;;;;;;5055001;28;20562;-58
2021/01/10 08:39:10;;;;;;;16.02;8.73;;;;;;;;;;5052441;28;20041;-59
2021/01/10 08:41:41;;;;;;;16.80;7.75;;;;;;;;;;5052847;28;20071;-58
2021/01/10 08:44:10;;;;;;;13.43;8.20;;;;;;;;;;5052815;28;20463;-70
2021/01/10 08:46:40;;;;;;;21.55;18.05;;;;;;;;;;5059138;28;20474;-69
2021/01/10 08:49:05;;;;;;;23.75;10.65;;;;;;;;;;5060790;28;20024;-71
2021/01/10 08:51:33;;;;;;;16.02;9.85;;;;;;;;;;5054867;28;20082;-69
2021/01/10 08:54:04;;;;;;;19.23;8.48;;;;;;;;;;5052562;28;20033;-71
2021/01/10 08:56:30;;;;;;;11.80;9.63;;;;;;;;;;5051665;28;20116;-70
2021/01/10 08:58:56;;;;;;;19.92;9.10;;;;;;;;;;5048620;28;20086;-70
2021/01/10 09:01:22;;;;;;;16.55;11.77;;;;;;;;;;5051663;28;20803;-68
2021/01/10 09:04:17;;;;;;;18.55;12.65;;;;;;;;;;5050348;28;20058;-72
2021/01/10 09:07:00;;;;;;;12.57;10.48;;;;;;;;;;5037057;28;20402;-71
2021/01/10 09:09:25;;;;;;;14.77;10.95;;;;;;;;;;5048986;28;20039;-71
2021/01/10 09:11:55;;;;;;;16.75;8.18;;;;;;;;;;5051664;28;20033;-71
2021/01/10 09:14:21;;;;;;;17.88;6.70;;;;;;;;;;5048949;28;20060;-70
2021/01/10 09:16:47;;;;;;;85.90;47.67;;;;;;;;;;5051160;28;20025;-72
2021/01/10 09:19:13;;;;;;;58.95;28.23;;;;;;;;;;5054946;28;20467;-70
2021/01/10 09:21:38;;;;;;;6.88;5.28;;;;;;;;;;5054428;28;20022;-72
2021/01/10 09:24:04;;;;;;;9.63;3.70;;;;;;;;;;5052217;28;20537;-72
2021/01/10 09:26:31;;;;;;;14.45;6.47;;;;;;;;;;5051159;28;20445;-70
2021/01/10 09:28:56;;;;;;;17.88;12.50;;;;;;;;;;5052865;28;20047;-71
2021/01/10 09:31:35;;;;;;;25.83;16.52;;;;;;;;;;5051775;28;20664;-71
2021/01/10 09:34:04;;;;;;;10.70;5.70;;;;;;;;;;5058289;28;20483;-73
2021/01/10 09:36:30;;;;;;;9.35;7.95;;;;;;;;;;5055606;28;20025;-69
2021/01/10 09:38:56;;;;;;;46.80;25.33;;;;;;;;;;5052663;28;20040;-70
2021/01/10 09:41:21;;;;;;;61.10;36.60;;;;;;;;;;5059532;28;20076;-70
2021/01/10 09:43:48;;;;;;;14.65;9.98;;;;;;;;;;5048367;28;20426;-70
2021/01/10 09:46:26;;;;;;;7.78;5.95;;;;;;;;;;5050995;28;20045;-67
2021/01/10 09:48:52;;;;;;;10.15;5.03;;;;;;;;;;5048390;28;20053;-69
2021/01/10 09:51:18;;;;;;;6.95;1.95;;;;;;;;;;5051389;28;20128;-69
2021/01/10 09:53:47;;;;;;;8.48;5.03;;;;;;;;;;5048008;28;20140;-70
2021/01/10 09:56:13;;;;;;;7.40;5.20;;;;;;;;;;5050911;28;20145;-69
2021/01/10 09:58:39;;;;;;;11.48;7.30;;;;;;;;;;5047901;28;20040;-71
2021/01/10 10:01:08;;;;;;;11.85;7.82;;;;;;;;;;5050759;28;20021;-71
2021/01/10 10:03:34;;;;;;;19.98;11.90;;;;;;;;;;5047954;28;20022;-69
2021/01/10 10:05:59;;;;;;;11.13;10.02;;;;;;;;;;5050025;28;20040;-69
2021/01/10 10:08:24;;;;;;;17.10;8.95;;;;;;;;;;5047784;28;20091;-68
2021/01/10 10:10:50;;;;;;;19.42;11.88;;;;;;;;;;5048258;28;20056;-70
2021/01/10 10:13:22;;;;;;;12.35;11.15;;;;;;;;;;5049057;28;20028;-69
2021/01/10 10:15:54;;;;;;;21.90;10.25;;;;;;;;;;5052836;28;20032;-67
2021/01/10 10:18:23;;;;;;;14.93;10.73;;;;;;;;;;5048205;28;20033;-69
2021/01/10 10:20:49;;;;;;;7.18;6.20;;;;;;;;;;5048687;28;20033;-70
2021/01/10 10:23:15;;;;;;;14.18;12.38;;;;;;;;;;5049400;28;20021;-69
2021/01/10 10:25:41;;;;;;;16.27;6.38;;;;;;;;;;5049528;28;20391;-70
2021/01/10 10:28:07;;;;;;;5.13;4.18;;;;;;;;;;5049783;28;20035;-70
2021/01/10 10:30:33;;;;;;;10.82;6.10;;;;;;;;;;5047473;28;20455;-70
2021/01/10 10:32:59;;;;;;;7.85;2.47;;;;;;;;;;5049631;28;20036;-70
2021/01/10 10:35:24;;;;;;;8.18;1.77;;;;;;;;;;5048058;28;20044;-70
2021/01/10 10:37:50;;;;;;;10.75;3.63;;;;;;;;;;5050822;28;20147;-70
2021/01/10 10:40:16;;;;;;;10.82;3.90;;;;;;;;;;5059670;28;20111;-69
2021/01/10 10:42:41;;;;;;;12.43;2.58;;;;;;;;;;5056733;28;20116;-68
2021/01/10 10:45:07;;;;;;;3.03;1.45;;;;;;;;;;5051917;28;20053;-69
2021/01/10 10:47:33;;;;;;;12.98;4.68;;;;;;;;;;5054101;28;20496;-67
2021/01/10 10:49:58;;;;;;;12.40;6.28;;;;;;;;;;5085163;28;20046;-69
2021/01/10 10:52:23;;;;;;;15.90;7.10;;;;;;;;;;5063100;28;20056;-69
2021/01/10 10:54:48;;;;;;;8.52;6.10;;;;;;;;;;5062268;28;20473;-67
2021/01/10 10:57:14;;;;;;;8.18;5.85;;;;;;;;;;5061283;28;20064;-67
2021/01/10 10:59:39;;;;;;;10.00;3.85;;;;;;;;;;5062826;28;20028;-68
2021/01/10 11:02:05;;;;;;;11.45;5.28;;;;;;;;;;5062129;28;20016;-65
2021/01/10 11:04:30;;;;;;;4.68;3.25;;;;;;;;;;5064306;28;20047;-67
2021/01/10 11:06:56;;;;;;;8.80;4.03;;;;;;;;;;5062721;28;20159;-68
2021/01/10 11:09:21;;;;;;;9.15;5.65;;;;;;;;;;5056308;28;20390;-68
2021/01/10 11:11:47;;;;;;;9.15;3.70;;;;;;;;;;5057809;28;20458;-70
2021/01/10 11:14:13;;;;;;;11.60;4.07;;;;;;;;;;5057051;28;20079;-70
2021/01/10 11:16:39;;;;;;;3.65;2.08;;;;;;;;;;5062929;28;20036;-68
2021/01/10 11:19:06;;;;;;;4.85;2.67;;;;;;;;;;5055648;28;20372;-69
2021/01/10 11:21:35;;;;;;;8.90;3.38;;;;;;;;;;5053620;28;20060;-68
2021/01/10 11:24:01;;;;;;;9.05;4.15;;;;;;;;;;5050491;28;20450;-71
2021/01/10 11:26:26;;;;;;;5.38;1.77;;;;;;;;;;5056625;28;20024;-70
2021/01/10 11:28:52;;;;;;;6.00;2.78;;;;;;;;;;5055346;28;20063;-72
2021/01/10 11:31:18;;;;;;;10.65;3.60;;;;;;;;;;5085019;28;20028;-68
2021/01/10 11:33:44;;;;;;;5.63;3.03;;;;;;;;;;5089540;28;20538;-69
2021/01/10 11:36:09;;;;;;;8.85;4.63;;;;;;;;;;5067573;28;20021;-70
2021/01/10 11:38:35;;;;;;;6.47;4.53;;;;;;;;;;5060851;28;20032;-72
2021/01/10 11:41:10;;;;;;;10.70;5.93;;;;;;;;;;5062955;28;20060;-71
2021/01/10 11:43:36;;;;;;;9.68;4.90;;;;;;;;;;5055747;28;20025;-69
2021/01/10 11:46:05;;;;;;;11.80;7.43;;;;;;;;;;5052648;28;20055;-68
2021/01/10 11:48:30;;;;;;;9.63;6.28;;;;;;;;;;5050276;28;20135;-69
2021/01/10 11:50:56;;;;;;;11.07;6.32;;;;;;;;;;5060617;28;20028;-73
2021/01/10 11:53:21;;;;;;;13.20;5.00;;;;;;;;;;5063259;28;20151;-70
2021/01/10 11:55:46;;;;;;;3.40;2.45;;;;;;;;;;5059627;28;20038;-69
2021/01/10 11:58:12;;;;;;;12.68;3.58;;;;;;;;;;5058705;28;20055;-71
2021/01/10 12:00:38;;;;;;;6.47;3.95;;;;;;;;;;5051885;28;20339;-69
2021/01/10 12:03:03;;;;;;;19.60;5.47;;;;;;;;;;5065113;28;20028;-70
2021/01/10 12:05:28;;;;;;;10.98;5.85;;;;;;;;;;5066240;28;20023;-68
2021/01/10 12:07:54;;;;;;;6.43;4.97;;;;;;;;;;5067558;28;20050;-68
2021/01/10 12:10:19;;;;;;;8.30;4.43;;;;;;;;;;5067659;28;20027;-66
2021/01/10 12:12:44;;;;;;;11.45;7.75;;;;;;;;;;5066972;28;20021;-67
2021/01/10 12:15:10;;;;;;;18.77;8.15;;;;;;;;;;5067382;28;20389;-68
2021/01/10 12:17:35;;;;;;;12.48;4.53;;;;;;;;;;5066455;28;20733;-67
2021/01/10 12:20:00;;;;;;;14.35;4.68;;;;;;;;;;5067161;28;20504;-68
2021/01/10 12:22:26;;;;;;;12.60;4.25;;;;;;;;;;5066596;28;20502;-69
2021/01/10 12:24:51;;;;;;;7.78;5.63;;;;;;;;;;5064177;28;20573;-70
2021/01/10 12:27:16;;;;;;;18.08;5.03;;;;;;;;;;5064833;28;20031;-70
2021/01/10 12:29:42;;;;;;;7.70;6.72;;;;;;;;;;5067095;28;20094;-69
2021/01/10 12:32:07;;;;;;;8.75;6.63;;;;;;;;;;5065260;28;20016;-69
2021/01/10 12:34:32;;;;;;;15.32;7.85;;;;;;;;;;5066702;28;20347;-70
2021/01/10 12:36:58;;;;;;;19.13;9.95;;;;;;;;;;5067818;28;20119;-71
2021/01/10 12:39:24;;;;;;;23.17;9.00;;;;;;;;;;5064837;28;20119;-71
2021/01/10 12:41:49;;;;;;;15.18;7.22;;;;;;;;;;5068173;28;20024;-70
2021/01/10 12:44:14;;;;;;;13.02;8.85;;;;;;;;;;5067178;28;20426;-71
2021/01/10 12:46:39;;;;;;;19.88;9.55;;;;;;;;;;5069738;28;20474;-71
2021/01/10 12:49:05;;;;;;;17.20;11.32;;;;;;;;;;5069164;28;20074;-67
2021/01/10 12:51:37;;;;;;;18.45;11.52;;;;;;;;;;5068566;28;20459;-71
2021/01/10 12:54:03;;;;;;;14.93;8.75;;;;;;;;;;5062548;28;20025;-70
2021/01/10 12:56:28;;;;;;;14.45;7.82;;;;;;;;;;5061303;28;20047;-71
2021/01/10 12:58:53;;;;;;;10.55;3.45;;;;;;;;;;5056272;28;20079;-70
2021/01/10 13:01:19;;;;;;;16.10;4.88;;;;;;;;;;5050756;28;20048;-71
2021/01/10 13:03:44;;;;;;;9.43;4.95;;;;;;;;;;5060521;28;20089;-71
2021/01/10 13:06:10;;;;;;;11.13;6.72;;;;;;;;;;5062396;28;20025;-68
2021/01/10 13:08:35;;;;;;;7.75;6.05;;;;;;;;;;5058636;28;20127;-69
2021/01/10 13:11:00;;;;;;;11.43;7.20;;;;;;;;;;5065237;28;20103;-70
2021/01/10 13:13:27;;;;;;;23.20;14.38;;;;;;;;;;5063591;28;20719;-68
2021/01/10 13:15:52;;;;;;;23.30;19.52;;;;;;;;;;5067784;28;20134;-68
2021/01/10 13:18:17;;;;;;;27.73;16.45;;;;;;;;;;5063703;28;20112;-70
2021/01/10 13:20:43;;;;;;;18.98;11.43;;;;;;;;;;5064545;28;20031;-69
2021/01/10 13:23:09;;;;;;;45.17;22.52;;;;;;;;;;5067136;28;20399;-70
2021/01/10 13:25:34;;;;;;;37.85;23.67;;;;;;;;;;5063950;28;20091;-70
2021/01/10 13:27:59;;;;;;;44.13;24.70;;;;;;;;;;5063355;28;20078;-71
2021/01/10 13:30:25;;;;;;;30.35;25.55;;;;;;;;;;5062994;28;20036;-69
2021/01/10 13:32:50;;;;;;;37.67;24.13;;;;;;;;;;5065403;28;20033;-70
2021/01/10 13:35:15;;;;;;;24.55;19.35;;;;;;;;;;5064278;28;20038;-71
2021/01/10 13:37:41;;;;;;;23.42;17.58;;;;;;;;;;5064685;28;20028;-71
2021/01/10 13:40:06;;;;;;;25.63;14.48;;;;;;;;;;5062946;28;20024;-69
2021/01/10 13:42:31;;;;;;;17.77;9.85;;;;;;;;;;5065352;28;20466;-71
2021/01/10 13:44:57;;;;;;;15.88;11.63;;;;;;;;;;5064956;28;20076;-69
2021/01/10 13:47:22;;;;;;;17.73;12.65;;;;;;;;;;5062460;28;20484;-70
2021/01/10 13:49:47;;;;;;;28.23;18.60;;;;;;;;;;5063490;28;20543;-70
2021/01/10 13:52:14;;;;;;;19.20;9.75;;;;;;;;;;5066247;28;20023;-70
2021/01/10 13:54:39;;;;;;;28.02;10.77;;;;;;;;;;5065827;28;20450;-70
2021/01/10 13:57:04;;;;;;;22.90;10.65;;;;;;;;;;5065098;28;20571;-70
2021/01/10 13:59:31;;;;;;;17.52;13.50;;;;;;;;;;5062373;28;20029;-68
2021/01/10 14:01:56;;;;;;;13.70;10.48;;;;;;;;;;5067394;28;20028;-69
2021/01/10 14:04:21;;;;;;;15.27;11.15;;;;;;;;;;5066731;28;20493;-71
2021/01/10 14:06:47;;;;;;;30.23;12.00;;;;;;;;;;5067421;28;20039;-71
2021/01/10 14:09:13;;;;;;;31.40;15.95;;;;;;;;;;5065182;28;20432;-70
2021/01/10 14:11:40;;;;;;;30.08;14.65;;;;;;;;;;5055924;28;20753;-70
2021/01/10 14:14:05;;;;;;;21.95;16.83;;;;;;;;;;5060390;28;20037;-69
2021/01/10 14:16:33;;;;;;;39.67;23.42;;;;;;;;;;5054790;28;20067;-70
2021/01/10 14:18:59;;;;;;;37.47;24.42;;;;;;;;;;5052502;28;20547;-69
2021/01/10 14:21:30;;;;;;;44.33;38.88;;;;;;;;;;5062857;28;20135;-70
2021/01/10 14:23:57;;;;;;;27.00;24.10;;;;;;;;;;5064202;28;20082;-69
2021/01/10 14:26:30;;;;;;;41.30;32.88;;;;;;;;;;5059996;28;20087;-72
2021/01/10 14:28:56;;;;;;;39.17;34.78;;;;;;;;;;5056466;28;20045;-70
2021/01/10 14:31:21;;;;;;;36.22;24.80;;;;;;;;;;5061469;28;20049;-72
2021/01/10 14:33:47;;;;;;;21.67;14.68;;;;;;;;;;5063979;28;20063;-71